sensor_id;sensor_type;location;lat;lon;timestamp;pressure;altitude;pressure_sealevel;temperature
60731;BMP280;46580;52.114;11.674;2024-01-11T00:00:31;-19008.09;;;-6.57
60731;BMP280;46580;52.114;11.674;2024-01-11T00:02:56;-19007.50;;;-6.59
60731;BMP280;46580;52.114;11.674;2024-01-11T00:05:21;-19005.78;;;-6.65
60731;BMP280;46580;52.114;11.674;2024-01-11T00:07:50;-19007.22;;;-6.60
60731;BMP280;46580;52.114;11.674;2024-01-11T00:10:16;-19008.97;;;-6.54
60731;BMP280;46580;52.114;11.674;2024-01-11T00:12:41;-19013.56;;;-6.38
60731;BMP280;46580;52.114;11.674;2024-01-11T00:15:07;-19009.97;;;-6.50
60731;BMP280;46580;52.114;11.674;2024-01-11T00:17:32;-19005.63;;;-6.65
60731;BMP280;46580;52.114;11.674;2024-01-11T00:19:58;-19006.06;;;-6.64
60731;BMP280;46580;52.114;11.674;2024-01-11T00:22:23;-19009.53;;;-6.52
60731;BMP280;46580;52.114;11.674;2024-01-11T00:24:48;-19012.72;;;-6.41
60731;BMP280;46580;52.114;11.674;2024-01-11T00:27:14;-19015.03;;;-6.33
60731;BMP280;46580;52.114;11.674;2024-01-11T00:29:40;-19012.72;;;-6.41
60731;BMP280;46580;52.114;11.674;2024-01-11T00:32:06;-19012.00;;;-6.44
60731;BMP280;46580;52.114;11.674;2024-01-11T00:34:31;-19012.72;;;-6.41
60731;BMP280;46580;52.114;11.674;2024-01-11T00:36:57;-19010.25;;;-6.49
60731;BMP280;46580;52.114;11.674;2024-01-11T00:39:22;-19007.50;;;-6.59
60731;BMP280;46580;52.114;11.674;2024-01-11T00:41:47;-19005.63;;;-6.65
60731;BMP280;46580;52.114;11.674;2024-01-11T00:44:13;-19005.78;;;-6.65
60731;BMP280;46580;52.114;11.674;2024-01-11T00:46:39;-19003.19;;;-6.73
60731;BMP280;46580;52.114;11.674;2024-01-11T00:49:04;-19003.75;;;-6.71
60731;BMP280;46580;52.114;11.674;2024-01-11T00:51:30;-19004.50;;;-6.69
60731;BMP280;46580;52.114;11.674;2024-01-11T00:53:55;-19002.63;;;-6.75
60731;BMP280;46580;52.114;11.674;2024-01-11T00:56:21;-19001.75;;;-6.78
60731;BMP280;46580;52.114;11.674;2024-01-11T00:58:46;-19001.59;;;-6.79
60731;BMP280;46580;52.114;11.674;2024-01-11T01:01:12;-19004.06;;;-6.70
60731;BMP280;46580;52.114;11.674;2024-01-11T01:03:40;-19002.63;;;-6.75
60731;BMP280;46580;52.114;11.674;2024-01-11T01:06:05;-19000.59;;;-6.82
60731;BMP280;46580;52.114;11.674;2024-01-11T01:08:31;-19001.44;;;-6.79
60731;BMP280;46580;52.114;11.674;2024-01-11T01:10:57;-19004.78;;;-6.68
60731;BMP280;46580;52.114;11.674;2024-01-11T01:13:22;-19008.81;;;-6.54
60731;BMP280;46580;52.114;11.674;2024-01-11T01:15:48;-19009.69;;;-6.51
60731;BMP280;46580;52.114;11.674;2024-01-11T01:18:13;-19004.91;;;-6.67
60731;BMP280;46580;52.114;11.674;2024-01-11T01:20:39;-19004.34;;;-6.69
60731;BMP280;46580;52.114;11.674;2024-01-11T01:23:04;-19005.78;;;-6.65
60731;BMP280;46580;52.114;11.674;2024-01-11T01:25:30;-19005.78;;;-6.65
60731;BMP280;46580;52.114;11.674;2024-01-11T01:27:55;-19005.50;;;-6.66
60731;BMP280;46580;52.114;11.674;2024-01-11T01:30:22;-19008.81;;;-6.54
60731;BMP280;46580;52.114;11.674;2024-01-11T01:32:47;-19008.38;;;-6.56
60731;BMP280;46580;52.114;11.674;2024-01-11T01:35:12;-19006.38;;;-6.63
60731;BMP280;46580;52.114;11.674;2024-01-11T01:37:38;-19008.97;;;-6.54
60731;BMP280;46580;52.114;11.674;2024-01-11T01:40:04;-19007.09;;;-6.60
60731;BMP280;46580;52.114;11.674;2024-01-11T01:42:29;-19003.47;;;-6.72
60731;BMP280;46580;52.114;11.674;2024-01-11T01:44:54;-19003.47;;;-6.72
60731;BMP280;46580;52.114;11.674;2024-01-11T01:47:21;-19005.63;;;-6.65
60731;BMP280;46580;52.114;11.674;2024-01-11T01:49:48;-19005.63;;;-6.65
60731;BMP280;46580;52.114;11.674;2024-01-11T01:52:15;-19005.78;;;-6.65
60731;BMP280;46580;52.114;11.674;2024-01-11T01:54:41;-19009.09;;;-6.53
60731;BMP280;46580;52.114;11.674;2024-01-11T01:57:07;-19005.94;;;-6.64
60731;BMP280;46580;52.114;11.674;2024-01-11T01:59:34;-19003.47;;;-6.72
60731;BMP280;46580;52.114;11.674;2024-01-11T02:02:00;-19005.22;;;-6.67
60731;BMP280;46580;52.114;11.674;2024-01-11T02:04:26;-19002.19;;;-6.77
60731;BMP280;46580;52.114;11.674;2024-01-11T02:06:53;-19000.31;;;-6.83
60731;BMP280;46580;52.114;11.674;2024-01-11T02:09:19;-19003.19;;;-6.73
60731;BMP280;46580;52.114;11.674;2024-01-11T02:11:44;-19006.22;;;-6.63
60731;BMP280;46580;52.114;11.674;2024-01-11T02:14:10;-19007.22;;;-6.60
60731;BMP280;46580;52.114;11.674;2024-01-11T02:16:37;-19001.75;;;-6.78
60731;BMP280;46580;52.114;11.674;2024-01-11T02:19:04;-19001.31;;;-6.80
60731;BMP280;46580;52.114;11.674;2024-01-11T02:21:30;-18999.72;;;-6.85
60731;BMP280;46580;52.114;11.674;2024-01-11T02:24:02;-18996.97;;;-6.94
60731;BMP280;46580;52.114;11.674;2024-01-11T02:26:27;-18995.25;;;-7.00
60731;BMP280;46580;52.114;11.674;2024-01-11T02:28:53;-18998.56;;;-6.89
60731;BMP280;46580;52.114;11.674;2024-01-11T02:31:18;-18995.38;;;-7.00
60731;BMP280;46580;52.114;11.674;2024-01-11T02:33:43;-18994.97;;;-7.01
60731;BMP280;46580;52.114;11.674;2024-01-11T02:36:09;-18994.25;;;-7.04
60731;BMP280;46580;52.114;11.674;2024-01-11T02:38:35;-18988.19;;;-7.24
60731;BMP280;46580;52.114;11.674;2024-01-11T02:41:01;-18989.47;;;-7.20
60731;BMP280;46580;52.114;11.674;2024-01-11T02:43:26;-18991.19;;;-7.14
60731;BMP280;46580;52.114;11.674;2024-01-11T02:45:55;-18993.38;;;-7.06
60731;BMP280;46580;52.114;11.674;2024-01-11T02:48:21;-18994.81;;;-7.02
60731;BMP280;46580;52.114;11.674;2024-01-11T02:50:48;-18997.69;;;-6.92
60731;BMP280;46580;52.114;11.674;2024-01-11T02:53:14;-19002.03;;;-6.77
60731;BMP280;46580;52.114;11.674;2024-01-11T02:55:39;-18998.28;;;-6.90
60731;BMP280;46580;52.114;11.674;2024-01-11T02:58:05;-18995.69;;;-6.99
60731;BMP280;46580;52.114;11.674;2024-01-11T03:00:30;-18990.19;;;-7.17
60731;BMP280;46580;52.114;11.674;2024-01-11T03:02:55;-18989.47;;;-7.20
60731;BMP280;46580;52.114;11.674;2024-01-11T03:05:21;-18993.38;;;-7.06
60731;BMP280;46580;52.114;11.674;2024-01-11T03:07:46;-18997.13;;;-6.94
60731;BMP280;46580;52.114;11.674;2024-01-11T03:10:11;-18998.44;;;-6.89
60731;BMP280;46580;52.114;11.674;2024-01-11T03:12:37;-19000.00;;;-6.84
60731;BMP280;46580;52.114;11.674;2024-01-11T03:15:03;-19000.31;;;-6.83
60731;BMP280;46580;52.114;11.674;2024-01-11T03:17:28;-19003.47;;;-6.72
60731;BMP280;46580;52.114;11.674;2024-01-11T03:19:54;-19002.47;;;-6.76
60731;BMP280;46580;52.114;11.674;2024-01-11T03:22:22;-18997.56;;;-6.92
60731;BMP280;46580;52.114;11.674;2024-01-11T03:24:47;-19000.88;;;-6.81
60731;BMP280;46580;52.114;11.674;2024-01-11T03:27:13;-18997.13;;;-6.94
60731;BMP280;46580;52.114;11.674;2024-01-11T03:29:38;-18993.94;;;-7.04
60731;BMP280;46580;52.114;11.674;2024-01-11T03:32:04;-18995.25;;;-7.00
60731;BMP280;46580;52.114;11.674;2024-01-11T03:34:29;-18996.69;;;-6.95
60731;BMP280;46580;52.114;11.674;2024-01-11T03:36:54;-18998.56;;;-6.89
60731;BMP280;46580;52.114;11.674;2024-01-11T03:39:20;-18996.56;;;-6.96
60731;BMP280;46580;52.114;11.674;2024-01-11T03:41:45;-18994.09;;;-7.04
60731;BMP280;46580;52.114;11.674;2024-01-11T03:44:11;-18990.47;;;-7.16
60731;BMP280;46580;52.114;11.674;2024-01-11T03:46:37;-18989.75;;;-7.19
60731;BMP280;46580;52.114;11.674;2024-01-11T03:49:02;-18994.81;;;-7.02
60731;BMP280;46580;52.114;11.674;2024-01-11T03:51:27;-18995.69;;;-6.99
60731;BMP280;46580;52.114;11.674;2024-01-11T03:53:53;-18995.09;;;-7.01
60731;BMP280;46580;52.114;11.674;2024-01-11T03:56:18;-18990.47;;;-7.16
60731;BMP280;46580;52.114;11.674;2024-01-11T03:58:44;-18994.38;;;-7.03
60731;BMP280;46580;52.114;11.674;2024-01-11T04:01:10;-18992.66;;;-7.09
60731;BMP280;46580;52.114;11.674;2024-01-11T04:03:36;-18993.66;;;-7.05
60731;BMP280;46580;52.114;11.674;2024-01-11T04:06:02;-18994.25;;;-7.04
60731;BMP280;46580;52.114;11.674;2024-01-11T04:08:27;-18991.63;;;-7.12
60731;BMP280;46580;52.114;11.674;2024-01-11T04:10:53;-18994.25;;;-7.04
60731;BMP280;46580;52.114;11.674;2024-01-11T04:13:18;-18993.38;;;-7.06
60731;BMP280;46580;52.114;11.674;2024-01-11T04:15:43;-18996.13;;;-6.97
60731;BMP280;46580;52.114;11.674;2024-01-11T04:18:13;-18992.50;;;-7.09
60731;BMP280;46580;52.114;11.674;2024-01-11T04:20:39;-18989.91;;;-7.18
60731;BMP280;46580;52.114;11.674;2024-01-11T04:23:04;-18991.34;;;-7.13
60731;BMP280;46580;52.114;11.674;2024-01-11T04:25:29;-18994.09;;;-7.04
60731;BMP280;46580;52.114;11.674;2024-01-11T04:27:55;-18995.38;;;-7.00
60731;BMP280;46580;52.114;11.674;2024-01-11T04:30:20;-18992.50;;;-7.09
60731;BMP280;46580;52.114;11.674;2024-01-11T04:32:45;-18997.25;;;-6.93
60731;BMP280;46580;52.114;11.674;2024-01-11T04:35:11;-18996.84;;;-6.95
60731;BMP280;46580;52.114;11.674;2024-01-11T04:37:36;-18991.94;;;-7.11
60731;BMP280;46580;52.114;11.674;2024-01-11T04:40:02;-18990.78;;;-7.15
60731;BMP280;46580;52.114;11.674;2024-01-11T04:42:28;-18992.38;;;-7.10
60731;BMP280;46580;52.114;11.674;2024-01-11T04:44:54;-18990.19;;;-7.17
60731;BMP280;46580;52.114;11.674;2024-01-11T04:47:19;-18987.03;;;-7.28
60731;BMP280;46580;52.114;11.674;2024-01-11T04:49:45;-18985.88;;;-7.32
60731;BMP280;46580;52.114;11.674;2024-01-11T04:52:10;-18990.19;;;-7.17
60731;BMP280;46580;52.114;11.674;2024-01-11T04:54:35;-18989.63;;;-7.19
60731;BMP280;46580;52.114;11.674;2024-01-11T04:57:01;-18988.75;;;-7.22
60731;BMP280;46580;52.114;11.674;2024-01-11T04:59:26;-18990.63;;;-7.16
60731;BMP280;46580;52.114;11.674;2024-01-11T05:01:52;-18991.50;;;-7.13
60731;BMP280;46580;52.114;11.674;2024-01-11T05:04:17;-18992.50;;;-7.09
60731;BMP280;46580;52.114;11.674;2024-01-11T05:06:42;-18993.66;;;-7.05
60731;BMP280;46580;52.114;11.674;2024-01-11T05:09:08;-18996.69;;;-6.95
60731;BMP280;46580;52.114;11.674;2024-01-11T05:11:36;-18998.84;;;-6.88
60731;BMP280;46580;52.114;11.674;2024-01-11T05:14:01;-18999.16;;;-6.87
60731;BMP280;46580;52.114;11.674;2024-01-11T05:16:27;-18998.00;;;-6.91
60731;BMP280;46580;52.114;11.674;2024-01-11T05:18:55;-18998.28;;;-6.90
60731;BMP280;46580;52.114;11.674;2024-01-11T05:21:22;-19001.44;;;-6.79
60731;BMP280;46580;52.114;11.674;2024-01-11T05:23:48;-19003.19;;;-6.73
60731;BMP280;46580;52.114;11.674;2024-01-11T05:26:19;-19000.59;;;-6.82
60731;BMP280;46580;52.114;11.674;2024-01-11T05:28:44;-19000.00;;;-6.84
60731;BMP280;46580;52.114;11.674;2024-01-11T05:31:11;-18999.44;;;-6.86
60731;BMP280;46580;52.114;11.674;2024-01-11T05:33:40;-18996.13;;;-6.97
60731;BMP280;46580;52.114;11.674;2024-01-11T05:36:06;-18991.94;;;-7.11
60731;BMP280;46580;52.114;11.674;2024-01-11T05:38:32;-18989.63;;;-7.19
60731;BMP280;46580;52.114;11.674;2024-01-11T05:40:57;-18987.75;;;-7.25
60731;BMP280;46580;52.114;11.674;2024-01-11T05:43:23;-18986.88;;;-7.28
60731;BMP280;46580;52.114;11.674;2024-01-11T05:45:49;-18990.78;;;-7.15
60731;BMP280;46580;52.114;11.674;2024-01-11T05:48:15;-18992.06;;;-7.11
60731;BMP280;46580;52.114;11.674;2024-01-11T05:50:41;-18990.47;;;-7.16
60731;BMP280;46580;52.114;11.674;2024-01-11T05:53:07;-18990.63;;;-7.16
60731;BMP280;46580;52.114;11.674;2024-01-11T05:55:32;-18989.75;;;-7.19
60731;BMP280;46580;52.114;11.674;2024-01-11T05:57:57;-18988.31;;;-7.23
60731;BMP280;46580;52.114;11.674;2024-01-11T06:00:23;-18989.47;;;-7.20
60731;BMP280;46580;52.114;11.674;2024-01-11T06:02:48;-18992.78;;;-7.08
60731;BMP280;46580;52.114;11.674;2024-01-11T06:05:13;-18994.66;;;-7.02
60731;BMP280;46580;52.114;11.674;2024-01-11T06:07:40;-18997.41;;;-6.93
60731;BMP280;46580;52.114;11.674;2024-01-11T06:10:09;-19000.44;;;-6.83
60731;BMP280;46580;52.114;11.674;2024-01-11T06:12:35;-18998.44;;;-6.89
60731;BMP280;46580;52.114;11.674;2024-01-11T06:15:01;-18995.38;;;-7.00
60731;BMP280;46580;52.114;11.674;2024-01-11T06:17:27;-18997.25;;;-6.93
60731;BMP280;46580;52.114;11.674;2024-01-11T06:19:53;-19001.16;;;-6.80
60731;BMP280;46580;52.114;11.674;2024-01-11T06:22:19;-19004.50;;;-6.69
60731;BMP280;46580;52.114;11.674;2024-01-11T06:24:45;-19003.63;;;-6.72
60731;BMP280;46580;52.114;11.674;2024-01-11T06:27:11;-18999.72;;;-6.85
60731;BMP280;46580;52.114;11.674;2024-01-11T06:29:36;-19003.19;;;-6.73
60731;BMP280;46580;52.114;11.674;2024-01-11T06:32:01;-19000.31;;;-6.83
60731;BMP280;46580;52.114;11.674;2024-01-11T06:34:27;-18998.44;;;-6.89
60731;BMP280;46580;52.114;11.674;2024-01-11T06:36:54;-18998.00;;;-6.91
60731;BMP280;46580;52.114;11.674;2024-01-11T06:39:19;-18997.41;;;-6.93
60731;BMP280;46580;52.114;11.674;2024-01-11T06:41:45;-18995.38;;;-7.00
60731;BMP280;46580;52.114;11.674;2024-01-11T06:44:10;-18993.22;;;-7.07
60731;BMP280;46580;52.114;11.674;2024-01-11T06:46:35;-18992.22;;;-7.10
60731;BMP280;46580;52.114;11.674;2024-01-11T06:49:07;-18992.78;;;-7.08
60731;BMP280;46580;52.114;11.674;2024-01-11T06:51:36;-18993.81;;;-7.05
60731;BMP280;46580;52.114;11.674;2024-01-11T06:54:02;-18994.53;;;-7.03
60731;BMP280;46580;52.114;11.674;2024-01-11T06:56:27;-18997.41;;;-6.93
60731;BMP280;46580;52.114;11.674;2024-01-11T06:58:54;-18998.84;;;-6.88
60731;BMP280;46580;52.114;11.674;2024-01-11T07:01:20;-19002.31;;;-6.76
60731;BMP280;46580;52.114;11.674;2024-01-11T07:03:45;-19001.16;;;-6.80
60731;BMP280;46580;52.114;11.674;2024-01-11T07:06:11;-18997.13;;;-6.94
60731;BMP280;46580;52.114;11.674;2024-01-11T07:08:37;-18998.13;;;-6.90
60731;BMP280;46580;52.114;11.674;2024-01-11T07:11:02;-19000.16;;;-6.84
60731;BMP280;46580;52.114;11.674;2024-01-11T07:13:31;-19000.31;;;-6.83
60731;BMP280;46580;52.114;11.674;2024-01-11T07:15:57;-19002.03;;;-6.77
60731;BMP280;46580;52.114;11.674;2024-01-11T07:18:26;-19001.75;;;-6.78
60731;BMP280;46580;52.114;11.674;2024-01-11T07:20:59;-19003.63;;;-6.72
60731;BMP280;46580;52.114;11.674;2024-01-11T07:23:24;-19005.94;;;-6.64
60731;BMP280;46580;52.114;11.674;2024-01-11T07:25:50;-19001.75;;;-6.78
60731;BMP280;46580;52.114;11.674;2024-01-11T07:28:18;-19001.44;;;-6.79
60731;BMP280;46580;52.114;11.674;2024-01-11T07:30:50;-19002.91;;;-6.74
60731;BMP280;46580;52.114;11.674;2024-01-11T07:33:15;-19006.78;;;-6.61
60731;BMP280;46580;52.114;11.674;2024-01-11T07:35:40;-19007.38;;;-6.59
60731;BMP280;46580;52.114;11.674;2024-01-11T07:38:06;-19011.28;;;-6.46
60731;BMP280;46580;52.114;11.674;2024-01-11T07:40:31;-19008.69;;;-6.55
60731;BMP280;46580;52.114;11.674;2024-01-11T07:42:57;-19007.50;;;-6.59
60731;BMP280;46580;52.114;11.674;2024-01-11T07:45:22;-19007.50;;;-6.59
60731;BMP280;46580;52.114;11.674;2024-01-11T07:47:48;-19008.09;;;-6.57
60731;BMP280;46580;52.114;11.674;2024-01-11T07:50:13;-19007.50;;;-6.59
60731;BMP280;46580;52.114;11.674;2024-01-11T07:52:39;-19010.97;;;-6.47
60731;BMP280;46580;52.114;11.674;2024-01-11T07:55:09;-19007.50;;;-6.59
60731;BMP280;46580;52.114;11.674;2024-01-11T07:57:39;-19005.06;;;-6.67
60731;BMP280;46580;52.114;11.674;2024-01-11T08:00:06;-19009.25;;;-6.53
60731;BMP280;46580;52.114;11.674;2024-01-11T08:02:34;-19009.53;;;-6.52
60731;BMP280;46580;52.114;11.674;2024-01-11T08:05:00;-19008.38;;;-6.56
60731;BMP280;46580;52.114;11.674;2024-01-11T08:07:28;-19009.97;;;-6.50
60731;BMP280;46580;52.114;11.674;2024-01-11T08:09:54;-19008.97;;;-6.54
60731;BMP280;46580;52.114;11.674;2024-01-11T08:12:20;-19005.63;;;-6.65
60731;BMP280;46580;52.114;11.674;2024-01-11T08:14:45;-19004.91;;;-6.67
60731;BMP280;46580;52.114;11.674;2024-01-11T08:17:12;-19005.06;;;-6.67
60731;BMP280;46580;52.114;11.674;2024-01-11T08:19:40;-19010.13;;;-6.50
60731;BMP280;46580;52.114;11.674;2024-01-11T08:22:08;-19014.16;;;-6.36
60731;BMP280;46580;52.114;11.674;2024-01-11T08:24:34;-19017.91;;;-6.24
60731;BMP280;46580;52.114;11.674;2024-01-11T08:27:00;-19017.03;;;-6.27
60731;BMP280;46580;52.114;11.674;2024-01-11T08:29:26;-19020.94;;;-6.13
60731;BMP280;46580;52.114;11.674;2024-01-11T08:31:51;-19020.78;;;-6.14
60731;BMP280;46580;52.114;11.674;2024-01-11T08:34:16;-19021.66;;;-6.11
60731;BMP280;46580;52.114;11.674;2024-01-11T08:36:42;-19024.13;;;-6.03
60731;BMP280;46580;52.114;11.674;2024-01-11T08:39:07;-19026.84;;;-5.93
60731;BMP280;46580;52.114;11.674;2024-01-11T08:41:36;-19030.47;;;-5.81
60731;BMP280;46580;52.114;11.674;2024-01-11T08:44:03;-19033.06;;;-5.73
60731;BMP280;46580;52.114;11.674;2024-01-11T08:46:30;-19035.66;;;-5.64
60731;BMP280;46580;52.114;11.674;2024-01-11T08:49:02;-19036.81;;;-5.60
60731;BMP280;46580;52.114;11.674;2024-01-11T08:51:29;-19036.66;;;-5.60
60731;BMP280;46580;52.114;11.674;2024-01-11T08:53:57;-19038.41;;;-5.55
60731;BMP280;46580;52.114;11.674;2024-01-11T08:56:23;-19038.69;;;-5.54
60731;BMP280;46580;52.114;11.674;2024-01-11T08:58:48;-19038.41;;;-5.55
60731;BMP280;46580;52.114;11.674;2024-01-11T09:01:15;-19042.16;;;-5.42
60731;BMP280;46580;52.114;11.674;2024-01-11T09:03:40;-19047.47;;;-5.24
60731;BMP280;46580;52.114;11.674;2024-01-11T09:06:06;-19050.94;;;-5.12
60731;BMP280;46580;52.114;11.674;2024-01-11T09:08:31;-19052.81;;;-5.06
60731;BMP280;46580;52.114;11.674;2024-01-11T09:11:00;-19051.38;;;-5.11
60731;BMP280;46580;52.114;11.674;2024-01-11T09:13:26;-19052.53;;;-5.07
60731;BMP280;46580;52.114;11.674;2024-01-11T09:15:52;-19055.84;;;-4.96
60731;BMP280;46580;52.114;11.674;2024-01-11T09:18:18;-19056.28;;;-4.94
60731;BMP280;46580;52.114;11.674;2024-01-11T09:20:44;-19058.00;;;-4.88
60731;BMP280;46580;52.114;11.674;2024-01-11T09:23:09;-19059.16;;;-4.84
60731;BMP280;46580;52.114;11.674;2024-01-11T09:25:35;-19056.88;;;-4.92
60731;BMP280;46580;52.114;11.674;2024-01-11T09:28:00;-19058.44;;;-4.87
60731;BMP280;46580;52.114;11.674;2024-01-11T09:30:26;-19061.75;;;-4.76
60731;BMP280;46580;52.114;11.674;2024-01-11T09:32:52;-19063.63;;;-4.69
60731;BMP280;46580;52.114;11.674;2024-01-11T09:35:18;-19065.06;;;-4.64
60731;BMP280;46580;52.114;11.674;2024-01-11T09:37:43;-19065.94;;;-4.62
60731;BMP280;46580;52.114;11.674;2024-01-11T09:40:11;-19071.00;;;-4.45
60731;BMP280;46580;52.114;11.674;2024-01-11T09:42:37;-19072.16;;;-4.41
60731;BMP280;46580;52.114;11.674;2024-01-11T09:45:14;-19075.19;;;-4.30
60731;BMP280;46580;52.114;11.674;2024-01-11T09:47:41;-19077.34;;;-4.23
60731;BMP280;46580;52.114;11.674;2024-01-11T09:50:07;-19082.25;;;-4.07
60731;BMP280;46580;52.114;11.674;2024-01-11T09:52:33;-19085.13;;;-3.97
60731;BMP280;46580;52.114;11.674;2024-01-11T09:55:02;-19089.44;;;-3.82
60731;BMP280;46580;52.114;11.674;2024-01-11T09:57:44;-19093.78;;;-3.68
60731;BMP280;46580;52.114;11.674;2024-01-11T10:00:13;-19095.50;;;-3.62
60731;BMP280;46580;52.114;11.674;2024-01-11T10:02:39;-19100.25;;;-3.46
60731;BMP280;46580;52.114;11.674;2024-01-11T10:05:05;-19102.72;;;-3.37
60731;BMP280;46580;52.114;11.674;2024-01-11T10:07:31;-19099.84;;;-3.47
60731;BMP280;46580;52.114;11.674;2024-01-11T10:09:58;-19101.41;;;-3.42
60731;BMP280;46580;52.114;11.674;2024-01-11T10:12:23;-19101.13;;;-3.43
60731;BMP280;46580;52.114;11.674;2024-01-11T10:14:51;-19100.41;;;-3.45
60731;BMP280;46580;52.114;11.674;2024-01-11T10:17:19;-19102.13;;;-3.39
60731;BMP280;46580;52.114;11.674;2024-01-11T10:19:45;-19103.00;;;-3.36
60731;BMP280;46580;52.114;11.674;2024-01-11T10:22:10;-19103.00;;;-3.36
60731;BMP280;46580;52.114;11.674;2024-01-11T10:24:42;-19102.44;;;-3.38
60731;BMP280;46580;52.114;11.674;2024-01-11T10:27:11;-19103.44;;;-3.35
60731;BMP280;46580;52.114;11.674;2024-01-11T10:29:36;-19106.19;;;-3.26
60731;BMP280;46580;52.114;11.674;2024-01-11T10:32:06;-19109.91;;;-3.13
60731;BMP280;46580;52.114;11.674;2024-01-11T10:34:31;-19110.22;;;-3.12
60731;BMP280;46580;52.114;11.674;2024-01-11T10:36:57;-19111.38;;;-3.08
60731;BMP280;46580;52.114;11.674;2024-01-11T10:39:24;-19114.25;;;-2.98
60731;BMP280;46580;52.114;11.674;2024-01-11T10:42:11;-19120.16;;;-2.78
60731;BMP280;46580;52.114;11.674;2024-01-11T10:44:39;-19121.59;;;-2.74
60731;BMP280;46580;52.114;11.674;2024-01-11T10:47:09;-19125.78;;;-2.60
60731;BMP280;46580;52.114;11.674;2024-01-11T10:49:39;-19124.03;;;-2.65
60731;BMP280;46580;52.114;11.674;2024-01-11T10:52:07;-19121.16;;;-2.75
60731;BMP280;46580;52.114;11.674;2024-01-11T10:54:34;-19119.88;;;-2.79
60731;BMP280;46580;52.114;11.674;2024-01-11T10:57:00;-19119.56;;;-2.80
60731;BMP280;46580;52.114;11.674;2024-01-11T10:59:26;-19115.97;;;-2.93
60731;BMP280;46580;52.114;11.674;2024-01-11T11:01:57;-19113.66;;;-3.00
60731;BMP280;46580;52.114;11.674;2024-01-11T11:04:24;-19110.78;;;-3.10
60731;BMP280;46580;52.114;11.674;2024-01-11T11:06:55;-19112.22;;;-3.05
60731;BMP280;46580;52.114;11.674;2024-01-11T11:09:25;-19115.25;;;-2.95
60731;BMP280;46580;52.114;11.674;2024-01-11T11:11:53;-19112.22;;;-3.05
60731;BMP280;46580;52.114;11.674;2024-01-11T11:14:22;-19112.81;;;-3.03
60731;BMP280;46580;52.114;11.674;2024-01-11T11:16:48;-19103.88;;;-3.34
60731;BMP280;46580;52.114;11.674;2024-01-11T11:19:14;-19108.47;;;-3.18
60731;BMP280;46580;52.114;11.674;2024-01-11T11:21:43;-19107.47;;;-3.21
60731;BMP280;46580;52.114;11.674;2024-01-11T11:24:10;-19110.78;;;-3.10
60731;BMP280;46580;52.114;11.674;2024-01-11T11:26:36;-19110.22;;;-3.12
60731;BMP280;46580;52.114;11.674;2024-01-11T11:29:03;-19116.25;;;-2.92
60731;BMP280;46580;52.114;11.674;2024-01-11T11:31:41;-19124.03;;;-2.65
60731;BMP280;46580;52.114;11.674;2024-01-11T11:34:07;-19126.34;;;-2.58
60731;BMP280;46580;52.114;11.674;2024-01-11T11:36:36;-19124.63;;;-2.63
60731;BMP280;46580;52.114;11.674;2024-01-11T11:39:02;-19118.28;;;-2.85
60731;BMP280;46580;52.114;11.674;2024-01-11T11:41:30;-19116.97;;;-2.89
60731;BMP280;46580;52.114;11.674;2024-01-11T11:44:02;-19112.38;;;-3.05
60731;BMP280;46580;52.114;11.674;2024-01-11T11:46:31;-19118.56;;;-2.84
60731;BMP280;46580;52.114;11.674;2024-01-11T11:48:58;-19120.59;;;-2.77
60731;BMP280;46580;52.114;11.674;2024-01-11T11:51:24;-19120.00;;;-2.79
60731;BMP280;46580;52.114;11.674;2024-01-11T11:53:50;-19121.88;;;-2.73
60731;BMP280;46580;52.114;11.674;2024-01-11T11:56:20;-19128.09;;;-2.52
60731;BMP280;46580;52.114;11.674;2024-01-11T11:58:47;-19131.69;;;-2.40
60731;BMP280;46580;52.114;11.674;2024-01-11T12:01:14;-19134.41;;;-2.30
60731;BMP280;46580;52.114;11.674;2024-01-11T12:03:44;-19133.13;;;-2.35
60731;BMP280;46580;52.114;11.674;2024-01-11T12:06:17;-19130.97;;;-2.42
60731;BMP280;46580;52.114;11.674;2024-01-11T12:08:43;-19131.81;;;-2.39
60731;BMP280;46580;52.114;11.674;2024-01-11T12:11:09;-19130.38;;;-2.44
60731;BMP280;46580;52.114;11.674;2024-01-11T12:13:37;-19126.50;;;-2.57
60731;BMP280;46580;52.114;11.674;2024-01-11T12:16:03;-19120.31;;;-2.78
60731;BMP280;46580;52.114;11.674;2024-01-11T12:18:28;-19119.28;;;-2.81
60731;BMP280;46580;52.114;11.674;2024-01-11T12:20:54;-19118.13;;;-2.85
60731;BMP280;46580;52.114;11.674;2024-01-11T12:23:19;-19120.00;;;-2.79
60731;BMP280;46580;52.114;11.674;2024-01-11T12:25:45;-19120.44;;;-2.78
60731;BMP280;46580;52.114;11.674;2024-01-11T12:28:10;-19121.75;;;-2.73
60731;BMP280;46580;52.114;11.674;2024-01-11T12:30:36;-19122.88;;;-2.69
60731;BMP280;46580;52.114;11.674;2024-01-11T12:33:02;-19116.41;;;-2.91
60731;BMP280;46580;52.114;11.674;2024-01-11T12:35:31;-19118.00;;;-2.86
60731;BMP280;46580;52.114;11.674;2024-01-11T12:38:04;-19118.00;;;-2.86
60731;BMP280;46580;52.114;11.674;2024-01-11T12:40:36;-19116.25;;;-2.92
60731;BMP280;46580;52.114;11.674;2024-01-11T12:43:06;-19114.69;;;-2.97
60731;BMP280;46580;52.114;11.674;2024-01-11T12:45:34;-19113.97;;;-2.99
60731;BMP280;46580;52.114;11.674;2024-01-11T12:48:00;-19109.91;;;-3.13
60731;BMP280;46580;52.114;11.674;2024-01-11T12:50:30;-19110.50;;;-3.11
60731;BMP280;46580;52.114;11.674;2024-01-11T12:53:10;-19112.22;;;-3.05
60731;BMP280;46580;52.114;11.674;2024-01-11T12:55:44;-19110.22;;;-3.12
60731;BMP280;46580;52.114;11.674;2024-01-11T12:58:09;-19111.06;;;-3.09
60731;BMP280;46580;52.114;11.674;2024-01-11T13:00:36;-19112.09;;;-3.06
60731;BMP280;46580;52.114;11.674;2024-01-11T13:03:02;-19113.09;;;-3.02
60731;BMP280;46580;52.114;11.674;2024-01-11T13:05:28;-19114.53;;;-2.97
60731;BMP280;46580;52.114;11.674;2024-01-11T13:07:53;-19117.13;;;-2.89
60731;BMP280;46580;52.114;11.674;2024-01-11T13:10:18;-19113.66;;;-3.00
60731;BMP280;46580;52.114;11.674;2024-01-11T13:12:45;-19116.41;;;-2.91
60731;BMP280;46580;52.114;11.674;2024-01-11T13:15:13;-19115.84;;;-2.93
60731;BMP280;46580;52.114;11.674;2024-01-11T13:17:39;-19114.25;;;-2.98
60731;BMP280;46580;52.114;11.674;2024-01-11T13:20:05;-19116.84;;;-2.90
60731;BMP280;46580;52.114;11.674;2024-01-11T13:22:32;-19113.09;;;-3.02
60731;BMP280;46580;52.114;11.674;2024-01-11T13:24:57;-19113.53;;;-3.01
60731;BMP280;46580;52.114;11.674;2024-01-11T13:27:23;-19114.81;;;-2.97
60731;BMP280;46580;52.114;11.674;2024-01-11T13:29:48;-19115.53;;;-2.94
60731;BMP280;46580;52.114;11.674;2024-01-11T13:32:13;-19115.53;;;-2.94
60731;BMP280;46580;52.114;11.674;2024-01-11T13:34:39;-19115.41;;;-2.95
60731;BMP280;46580;52.114;11.674;2024-01-11T13:37:04;-19116.25;;;-2.92
60731;BMP280;46580;52.114;11.674;2024-01-11T13:39:30;-19115.25;;;-2.95